Norwegian Crown — C6II4 — position and weather

sailwx.info

Track history (hours):
 
Tides and Currents Weather Stations Pressure Air Temp Water Temp Dewpoint Dewpoint Depression Visibility Wind Speed Wind Dir Waves Ship Positions

Norwegian Crown

Operator: Norwegian Cruise Line

Last reported at 2019-Nov-16 03:31 UTC. Time now 2019-Nov-20 10:00 UTC.
Position N 49°40' W 003°50'.

Type: Ship. MMSI: 308785000.

Date/timePositionNaut miles runAvg speedWind from/ knotsBaromVisibWave heightAir tempDewpointWater temp
2019-Nov-16 03:31N 49°40' W 003°50'816.0
2019-Nov-16 03:01N 49°44' W 003°40'816.6
2019-Nov-16 02:31N 49°48' W 003°29'9214.1
2019-Nov-15 20:00N 50°26' W 001°18'1414.2
2019-Nov-15 19:00N 50°34' W 000°60'1111.1
2019-Nov-15 18:00N 50°45' W 001°06'14 5.7
2019-Nov-15 15:30N 50°53' W 001°24'0 0.0
2019-Nov-15 13:30N 50°53' W 001°24'0 0.0
2019-Nov-15 12:00N 50°53' W 001°24'0 0.0
2019-Nov-15 09:21N 50°53' W 001°24'0 0.0
2019-Nov-15 08:21N 50°53' W 001°24'0 0.0
2019-Nov-15 06:54N 50°53' W 001°24'14 5.7
2019-Nov-15 04:30N 50°45' W 001°07'1111.4
2019-Nov-15 03:30N 50°38' W 000°53'4511.5
2019-Nov-14 23:38N 50°33' E 000°17'1614.1
2019-Nov-14 22:30N 50°39' E 000°41'5016.8
2019-Nov-14 19:30N 51°12' E 001°41'917.3
2019-Nov-14 19:00N 51°19' E 001°49'816.2
2019-Nov-14 18:31N 51°26' E 001°55'815.5
2019-Nov-14 18:01N 51°32' E 002°04'815.3
2019-Nov-14 17:31N 51°37' E 002°12'9413.4
2019-Nov-14 10:30N 52°30' E 004°17'24 5.9
2019-Nov-14 06:28N 52°23' E 004°55'0 0.1
2019-Nov-14 03:58N 52°23' E 004°55'0 0.0
2019-Nov-14 01:58N 52°23' E 004°55'0 0.0
2019-Nov-13 23:28N 52°23' E 004°55'0 0.0
2019-Nov-13 21:28N 52°23' E 004°55'0 0.0
2019-Nov-13 20:25N 52°23' E 004°55'0 0.0
2019-Nov-13 18:28N 52°23' E 004°55'0 0.0
2019-Nov-13 17:58N 52°23' E 004°55'0 0.0
2019-Nov-13 15:58N 52°23' E 004°55'0 0.0
2019-Nov-13 14:28N 52°23' E 004°55'0 0.0
2019-Nov-13 13:58N 52°23' E 004°55'0 0.0
2019-Nov-13 12:28N 52°23' E 004°55'0 0.0
2019-Nov-13 11:28N 52°23' E 004°55'0 0.0
2019-Nov-13 09:58N 52°23' E 004°55'0 0.0
2019-Nov-13 09:28N 52°23' E 004°55'0 0.0
2019-Nov-13 08:28N 52°23' E 004°55'11 4.6
2019-Nov-13 06:01N 52°28' E 004°39'8 2.7
2019-Nov-13 03:00N 52°29' E 004°26'1 2.4
2019-Nov-13 02:30N 52°29' E 004°27'1 1.1
2019-Nov-13 02:00N 52°29' E 004°27'8 4.2
2019-Nov-13 00:00N 52°29' E 004°13'714.3
2019-Nov-12 23:30N 52°28' E 004°01'1812.1
2019-Nov-12 22:00N 52°10' E 003°54'27 6.6
2019-Nov-12 17:58N 51°54' E 004°29'0 0.0
2019-Nov-12 15:28N 51°54' E 004°29'0 0.0
2019-Nov-12 14:58N 51°54' E 004°29'0 0.0
2019-Nov-12 13:58N 51°54' E 004°29'0 0.0
2019-Nov-12 13:28N 51°54' E 004°29'0 0.0
2019-Nov-12 12:58N 51°54' E 004°29'0 0.0
2019-Nov-12 11:58N 51°54' E 004°29'0 0.0
2019-Nov-12 11:28N 51°54' E 004°29'0 0.0
2019-Nov-12 09:58N 51°54' E 004°29'0 0.0
2019-Nov-12 08:58N 51°54' E 004°29'7 4.7
2019-Nov-12 07:30N 51°54' E 004°18'1711.3
2019-Nov-12 06:00N 52°00' E 003°53'23 9.1
2019-Nov-12 03:29N 51°54' E 003°17'3610.4
2019-Nov-12 00:00N 51°24' E 002°44'18 7.2
2019-Nov-11 21:28N 51°20' E 003°12'0 0.0
2019-Nov-11 20:58N 51°20' E 003°12'0 0.0
2019-Nov-11 18:28N 51°20' E 003°12'0 0.0
2019-Nov-11 17:28N 51°20' E 003°12'0 0.0
2019-Nov-11 16:58N 51°20' E 003°12'0 0.0
2019-Nov-11 16:28N 51°20' E 003°12'0 0.0
2019-Nov-11 14:58N 51°20' E 003°12'0 0.0
2019-Nov-11 12:57N 51°20' E 003°12'0 0.0
2019-Nov-11 11:59N 51°20' E 003°12'0 0.0
2019-Nov-11 10:29N 51°20' E 003°12'0 0.0
2019-Nov-11 08:59N 51°20' E 003°12'0 0.0
2019-Nov-11 05:59N 51°20' E 003°12'0 0.0
2019-Nov-11 05:26N 51°20' E 003°12'4 2.1
2019-Nov-11 03:30N 51°24' E 003°13'1514.8
2019-Nov-11 02:30N 51°26' E 003°37'4 7.4
2019-Nov-11 02:00N 51°25' E 003°42'9 9.1
2019-Nov-11 01:01N 51°23' E 003°57'4 7.7
2019-Nov-11 00:30N 51°24' E 004°02'8 8.2
2019-Nov-10 23:30N 51°21' E 004°14'7 7.3
2019-Nov-10 22:30N 51°15' E 004°20'3 1.8
2019-Nov-10 20:56N 51°13' E 004°24'0 0.0
2019-Nov-10 18:26N 51°13' E 004°24'0 0.0
2019-Nov-10 15:56N 51°13' E 004°24'0 0.0
2019-Nov-10 08:56N 51°13' E 004°24'0 0.0
2019-Nov-10 05:56N 51°13' E 004°24'0 0.0
2019-Nov-10 03:56N 51°13' E 004°24'0 0.0
2019-Nov-10 00:56N 51°13' E 004°24'0 0.0
2019-Nov-09 23:26N 51°13' E 004°24'0 0.0
2019-Nov-09 22:56N 51°13' E 004°24'0 0.0
2019-Nov-09 16:26N 51°13' E 004°24'0 0.0
2019-Nov-09 15:26N 51°13' E 004°24'27 5.5
2019-Nov-09 10:30N 51°23' E 003°43'5 9.7
2019-Nov-09 10:00N 51°26' E 003°36'5913.1
2019-Nov-09 05:31N 51°13' E 002°04'2713.7
2019-Nov-09 03:31N 50°56' E 001°30'714.1
2019-Nov-09 03:00N 50°50' E 001°25'7014.1
2019-Nov-08 22:00N 50°15' W 000°11'1613.4
2019-Nov-08 20:51N 50°23' W 000°32'1016.1
2019-Nov-08 20:15N 50°31' W 000°41'3412.4
2019-Nov-08 17:30N 50°52' W 001°23'1 1.0
2019-Nov-08 16:28N 50°53' W 001°24'0 0.0
2019-Nov-08 10:58N 50°53' W 001°24'0 0.0
2019-Nov-08 09:25N 50°53' W 001°24'0 0.0
2019-Nov-08 08:58N 50°53' W 001°24'0 0.0
2019-Nov-08 08:22N 50°53' W 001°24'0 0.0
2019-Nov-08 06:55N 50°53' W 001°24'50 6.7
2019-Nov-07 23:30N 50°04' W 001°39'713.7
2019-Nov-07 23:00N 50°02' W 001°49'2013.7
2019-Nov-07 21:31N 49°57' W 002°20'12016.2
2019-Nov-07 14:09N 49°00' W 005°02'  
Track history (hours):
 
Tides and Currents Weather Stations Pressure Air Temp Water Temp Dewpoint Dewpoint Depression Visibility Wind Speed Wind Dir Waves Ship Positions

Norwegian Crown

Operator: Norwegian Cruise Line

Last reported at 2019-Nov-16 03:31 UTC. Time now 2019-Nov-20 10:00 UTC.
Position N 49°40' W 003°50'.

Type: Ship. MMSI: 308785000.

Date/timePositionNaut miles runAvg speedWind from/ knotsBaromVisibWave heightAir tempDewpointWater temp
2019-Nov-16 03:31N 49°40' W 003°50'816.0
2019-Nov-16 03:01N 49°44' W 003°40'816.6
2019-Nov-16 02:31N 49°48' W 003°29'9214.1
2019-Nov-15 20:00N 50°26' W 001°18'1414.2
2019-Nov-15 19:00N 50°34' W 000°60'1111.1
2019-Nov-15 18:00N 50°45' W 001°06'14 5.7
2019-Nov-15 15:30N 50°53' W 001°24'0 0.0
2019-Nov-15 13:30N 50°53' W 001°24'0 0.0
2019-Nov-15 12:00N 50°53' W 001°24'0 0.0
2019-Nov-15 09:21N 50°53' W 001°24'0 0.0
2019-Nov-15 08:21N 50°53' W 001°24'0 0.0
2019-Nov-15 06:54N 50°53' W 001°24'14 5.7
2019-Nov-15 04:30N 50°45' W 001°07'1111.4
2019-Nov-15 03:30N 50°38' W 000°53'4511.5
2019-Nov-14 23:38N 50°33' E 000°17'1614.1
2019-Nov-14 22:30N 50°39' E 000°41'5016.8
2019-Nov-14 19:30N 51°12' E 001°41'917.3
2019-Nov-14 19:00N 51°19' E 001°49'816.2
2019-Nov-14 18:31N 51°26' E 001°55'815.5
2019-Nov-14 18:01N 51°32' E 002°04'815.3
2019-Nov-14 17:31N 51°37' E 002°12'9413.4
2019-Nov-14 10:30N 52°30' E 004°17'24 5.9
2019-Nov-14 06:28N 52°23' E 004°55'0 0.1
2019-Nov-14 03:58N 52°23' E 004°55'0 0.0
2019-Nov-14 01:58N 52°23' E 004°55'0 0.0
2019-Nov-13 23:28N 52°23' E 004°55'0 0.0
2019-Nov-13 21:28N 52°23' E 004°55'0 0.0
2019-Nov-13 20:25N 52°23' E 004°55'0 0.0
2019-Nov-13 18:28N 52°23' E 004°55'0 0.0
2019-Nov-13 17:58N 52°23' E 004°55'0 0.0
2019-Nov-13 15:58N 52°23' E 004°55'0 0.0
2019-Nov-13 14:28N 52°23' E 004°55'0 0.0
2019-Nov-13 13:58N 52°23' E 004°55'0 0.0
2019-Nov-13 12:28N 52°23' E 004°55'0 0.0
2019-Nov-13 11:28N 52°23' E 004°55'0 0.0
2019-Nov-13 09:58N 52°23' E 004°55'0 0.0
2019-Nov-13 09:28N 52°23' E 004°55'0 0.0
2019-Nov-13 08:28N 52°23' E 004°55'11 4.6
2019-Nov-13 06:01N 52°28' E 004°39'8 2.7
2019-Nov-13 03:00N 52°29' E 004°26'1 2.4
2019-Nov-13 02:30N 52°29' E 004°27'1 1.1
2019-Nov-13 02:00N 52°29' E 004°27'8 4.2
2019-Nov-13 00:00N 52°29' E 004°13'714.3
2019-Nov-12 23:30N 52°28' E 004°01'1812.1
2019-Nov-12 22:00N 52°10' E 003°54'27 6.6
2019-Nov-12 17:58N 51°54' E 004°29'0 0.0
2019-Nov-12 15:28N 51°54' E 004°29'0 0.0
2019-Nov-12 14:58N 51°54' E 004°29'0 0.0
2019-Nov-12 13:58N 51°54' E 004°29'0 0.0
2019-Nov-12 13:28N 51°54' E 004°29'0 0.0
2019-Nov-12 12:58N 51°54' E 004°29'0 0.0
2019-Nov-12 11:58N 51°54' E 004°29'0 0.0
2019-Nov-12 11:28N 51°54' E 004°29'0 0.0
2019-Nov-12 09:58N 51°54' E 004°29'0 0.0
2019-Nov-12 08:58N 51°54' E 004°29'7 4.7
2019-Nov-12 07:30N 51°54' E 004°18'1711.3
2019-Nov-12 06:00N 52°00' E 003°53'23 9.1
2019-Nov-12 03:29N 51°54' E 003°17'3610.4
2019-Nov-12 00:00N 51°24' E 002°44'18 7.2
2019-Nov-11 21:28N 51°20' E 003°12'0 0.0
2019-Nov-11 20:58N 51°20' E 003°12'0 0.0
2019-Nov-11 18:28N 51°20' E 003°12'0 0.0
2019-Nov-11 17:28N 51°20' E 003°12'0 0.0
2019-Nov-11 16:58N 51°20' E 003°12'0 0.0
2019-Nov-11 16:28N 51°20' E 003°12'0 0.0
2019-Nov-11 14:58N 51°20' E 003°12'0 0.0
2019-Nov-11 12:57N 51°20' E 003°12'0 0.0
2019-Nov-11 11:59N 51°20' E 003°12'0 0.0
2019-Nov-11 10:29N 51°20' E 003°12'0 0.0
2019-Nov-11 08:59N 51°20' E 003°12'0 0.0
2019-Nov-11 05:59N 51°20' E 003°12'0 0.0
2019-Nov-11 05:26N 51°20' E 003°12'4 2.1
2019-Nov-11 03:30N 51°24' E 003°13'1514.8
2019-Nov-11 02:30N 51°26' E 003°37'4 7.4
2019-Nov-11 02:00N 51°25' E 003°42'9 9.1
2019-Nov-11 01:01N 51°23' E 003°57'4 7.7
2019-Nov-11 00:30N 51°24' E 004°02'8 8.2
2019-Nov-10 23:30N 51°21' E 004°14'7 7.3
2019-Nov-10 22:30N 51°15' E 004°20'3 1.8
2019-Nov-10 20:56N 51°13' E 004°24'0 0.0
2019-Nov-10 18:26N 51°13' E 004°24'0 0.0
2019-Nov-10 15:56N 51°13' E 004°24'0 0.0
2019-Nov-10 08:56N 51°13' E 004°24'0 0.0
2019-Nov-10 05:56N 51°13' E 004°24'0 0.0
2019-Nov-10 03:56N 51°13' E 004°24'0 0.0
2019-Nov-10 00:56N 51°13' E 004°24'0 0.0
2019-Nov-09 23:26N 51°13' E 004°24'0 0.0
2019-Nov-09 22:56N 51°13' E 004°24'0 0.0
2019-Nov-09 16:26N 51°13' E 004°24'0 0.0
2019-Nov-09 15:26N 51°13' E 004°24'27 5.5
2019-Nov-09 10:30N 51°23' E 003°43'5 9.7
2019-Nov-09 10:00N 51°26' E 003°36'5913.1
2019-Nov-09 05:31N 51°13' E 002°04'2713.7
2019-Nov-09 03:31N 50°56' E 001°30'714.1
2019-Nov-09 03:00N 50°50' E 001°25'7014.1
2019-Nov-08 22:00N 50°15' W 000°11'1613.4
2019-Nov-08 20:51N 50°23' W 000°32'1016.1
2019-Nov-08 20:15N 50°31' W 000°41'3412.4
2019-Nov-08 17:30N 50°52' W 001°23'1 1.0
2019-Nov-08 16:28N 50°53' W 001°24'0 0.0
2019-Nov-08 10:58N 50°53' W 001°24'0 0.0
2019-Nov-08 09:25N 50°53' W 001°24'0 0.0
2019-Nov-08 08:58N 50°53' W 001°24'0 0.0
2019-Nov-08 08:22N 50°53' W 001°24'0 0.0
2019-Nov-08 06:55N 50°53' W 001°24'50 6.7
2019-Nov-07 23:30N 50°04' W 001°39'713.7
2019-Nov-07 23:00N 50°02' W 001°49'2013.7
2019-Nov-07 21:31N 49°57' W 002°20'12016.2
2019-Nov-07 14:09N 49°00' W 005°02'  

Dump ship's entire track history